Time;durP1;ratioP1;P1;durP2;ratioP2;P2;SDS_P1;SDS_P2;PMS_P1;PMS_P2;Temp;Humidity;BMP_temperature;BMP_pressure;BME280_temperature;BME280_humidity;BME280_pressure;Samples;Min_cycle;Max_cycle;Signal;HPM_P1;HPM_P2
2023/06/09 00:00:21;;;;;;;7.32;5.43;;;19.00;96.70;;;;;;6217779;23;20016;-84
2023/06/09 00:02:50;;;;;;;8.93;5.90;;;;;;;;;;6187869;23;20012;-82
2023/06/09 00:05:17;;;;;;;9.63;5.38;;;;;;;;;;6187944;23;20499;-86
2023/06/09 00:07:44;;;;;;;6.70;5.30;;;;;;;;;;6190048;23;20718;-81
2023/06/09 00:10:10;;;;;;;8.35;5.53;;;18.90;97.20;;;;;;6189584;23;20005;-83
2023/06/09 00:12:36;;;;;;;7.80;5.65;;;;;;;;;;6190837;23;20020;-84
2023/06/09 00:15:02;;;;;;;7.32;5.65;;;;;;;;;;6190817;23;20050;-84
2023/06/09 00:17:29;;;;;;;7.82;5.32;;;;;;;;;;6191211;23;20000;-82
2023/06/09 00:20:02;;;;;;;8.10;5.82;;;;;;;;;;6218115;23;20001;-83
2023/06/09 00:22:28;;;;;;;7.20;5.03;;;;;;;;;;6191756;23;20000;-83
2023/06/09 00:24:55;;;;;;;7.57;5.53;;;;;;;;;;6219020;23;20035;-85
2023/06/09 00:27:24;;;;;;;7.45;5.45;;;;;;;;;;6219759;23;20000;-85
2023/06/09 00:29:50;;;;;;;9.25;5.53;;;18.80;97.60;;;;;;6190746;23;20077;-84
2023/06/09 00:32:16;;;;;;;7.05;5.25;;;;;;;;;;6193268;23;20013;-82
2023/06/09 00:34:43;;;;;;;7.13;5.35;;;18.70;97.80;;;;;;6191506;23;20013;-83
2023/06/09 00:37:09;;;;;;;7.35;4.97;;;;;;;;;;6171463;23;20013;-81
2023/06/09 00:39:35;;;;;;;8.23;5.38;;;;;;;;;;6193384;23;20020;-82
2023/06/09 00:42:01;;;;;;;9.07;6.47;;;;;;;;;;6193299;23;20105;-81
2023/06/09 00:44:27;;;;;;;10.25;6.25;;;;;;;;;;6219525;23;20360;-83
2023/06/09 00:46:53;;;;;;;11.02;5.50;;;;;;;;;;6218458;23;20103;-83
2023/06/09 00:49:19;;;;;;;8.05;5.82;;;;;;;;;;6191460;23;20043;-85
2023/06/09 00:51:46;;;;;;;7.38;5.72;;;;;;;;;;6218356;23;20452;-82
2023/06/09 00:54:12;;;;;;;9.88;6.85;;;;;;;;;;6191378;23;20059;-82
2023/06/09 00:56:39;;;;;;;8.88;5.78;;;18.50;98.60;;;;;;6192483;23;20690;-80
2023/06/09 00:59:06;;;;;;;9.18;6.32;;;;;;;;;;6220918;23;20007;-83
2023/06/09 01:01:32;;;;;;;7.57;5.57;;;;;;;;;;6191261;23;20004;-86
2023/06/09 01:03:59;;;;;;;8.23;5.90;;;;;;;;;;6219509;23;20035;-82
2023/06/09 01:06:31;;;;;;;7.30;5.75;;;18.50;98.90;;;;;;6220360;23;20019;-83
2023/06/09 01:09:25;;;;;;;8.50;5.57;;;18.40;99.10;;;;;;6191459;23;20616;-82
2023/06/09 01:12:19;;;;;;;7.25;5.82;;;18.40;99.30;;;;;;6191483;23;20005;-83
2023/06/09 01:14:52;;;;;;;8.32;5.80;;;18.30;99.40;;;;;;6218856;23;20067;-82
2023/06/09 01:17:20;;;;;;;6.70;5.25;;;18.30;99.70;;;;;;6219296;23;20439;-81
2023/06/09 01:19:51;;;;;;;9.52;5.75;;;18.30;99.80;;;;;;6190216;23;20020;-84
2023/06/09 01:22:20;;;;;;;7.18;5.53;;;;;;;;;;6219769;23;20008;-80
2023/06/09 01:24:49;;;;;;;8.68;5.53;;;;;;;;;;6190702;23;20009;-80
2023/06/09 01:27:21;;;;;;;8.63;5.55;;;18.20;99.90;;;;;;6219178;23;20004;-81
2023/06/09 01:29:48;;;;;;;6.97;5.47;;;;;;;;;;6190713;23;20008;-82
2023/06/09 01:32:16;;;;;;;8.85;6.35;;;18.10;99.90;;;;;;6217077;23;20020;-79
2023/06/09 01:34:43;;;;;;;7.88;5.55;;;18.10;99.90;;;;;;6215821;23;20008;-83
2023/06/09 01:37:09;;;;;;;7.50;6.05;;;;;;;;;;6220373;23;20004;-81
2023/06/09 01:39:35;;;;;;;9.30;5.38;;;;;;;;;;6218069;23;20001;-86
2023/06/09 01:42:01;;;;;;;10.40;5.93;;;;;;;;;;6216270;23;20007;-83
2023/06/09 01:44:27;;;;;;;10.00;5.40;;;18.10;99.90;;;;;;6190416;23;20508;-83
2023/06/09 02:10:50;;;;;;;9.20;5.93;;;;;;;;;;5082221;27;20426;-83
2023/06/09 02:13:18;;;;;;;8.45;6.38;;;17.80;99.90;;;;;;5076863;28;20063;-81
2023/06/09 02:15:45;;;;;;;7.05;5.85;;;;;;;;;;5078016;28;20420;-83
2023/06/09 02:18:12;;;;;;;9.07;6.00;;;;;;;;;;5065915;28;20407;-83
2023/06/09 02:20:44;;;;;;;8.02;5.75;;;17.60;99.90;;;;;;5072332;28;20075;-83
2023/06/09 02:23:10;;;;;;;8.35;5.97;;;;;;;;;;5068992;28;20020;-85
2023/06/09 02:25:37;;;;;;;8.85;6.30;;;;;;;;;;5069923;28;20680;-84
2023/06/09 02:28:04;;;;;;;6.18;5.28;;;17.50;99.90;;;;;;5069833;28;20033;-81
2023/06/09 02:30:30;;;;;;;7.30;5.70;;;;;;;;;;5088080;28;20021;-82
2023/06/09 02:32:58;;;;;;;9.13;5.90;;;;;;;;;;5082324;28;20503;-83
2023/06/09 02:35:24;;;;;;;8.55;6.05;;;;;;;;;;5067527;28;20028;-84
2023/06/09 02:37:52;;;;;;;9.50;6.53;;;;;;;;;;5066754;28;20480;-82
2023/06/09 02:40:18;;;;;;;7.07;5.82;;;;;;;;;;5068257;28;20025;-83
2023/06/09 02:42:44;;;;;;;8.02;5.55;;;;;;;;;;5062282;28;20054;-81
2023/06/09 02:45:10;;;;;;;9.85;6.40;;;;;;;;;;5063338;28;20029;-84
2023/06/09 02:47:36;;;;;;;7.60;5.32;;;;;;;;;;5061294;28;20043;-82
2023/06/09 02:50:02;;;;;;;7.50;5.88;;;;;;;;;;5065346;28;20037;-84
2023/06/09 02:52:28;;;;;;;6.93;5.55;;;;;;;;;;5070506;28;20029;-84
2023/06/09 02:54:55;;;;;;;6.60;5.38;;;17.30;99.90;;;;;;5067151;28;20029;-86
2023/06/09 02:57:21;;;;;;;8.40;6.10;;;;;;;;;;5084308;28;20029;-85
2023/06/09 02:59:47;;;;;;;10.38;6.40;;;;;;;;;;5068212;28;20032;-83
2023/06/09 03:02:13;;;;;;;7.47;5.78;;;;;;;;;;5081515;28;20025;-81
2023/06/09 03:04:40;;;;;;;7.65;5.93;;;;;;;;;;5065760;28;20111;-85
2023/06/09 03:07:09;;;;;;;7.10;5.43;;;17.20;99.90;;;;;;5069452;28;20028;-83
2023/06/09 03:09:37;;;;;;;7.47;5.53;;;17.30;99.90;;;;;;5076835;28;20036;-84
2023/06/09 03:12:03;;;;;;;8.80;6.63;;;;;;;;;;5054634;28;20060;-86
2023/06/09 03:14:30;;;;;;;8.75;5.55;;;;;;;;;;5057803;28;20060;-84
2023/06/09 03:16:58;;;;;;;7.22;5.50;;;;;;;;;;5053394;28;20027;-83
2023/06/09 03:19:24;;;;;;;6.35;5.30;;;;;;;;;;5068418;28;20499;-83
2023/06/09 03:21:52;;;;;;;8.82;5.82;;;;;;;;;;5057494;28;20020;-83
2023/06/09 03:24:19;;;;;;;9.65;6.28;;;;;;;;;;5048632;28;20120;-83
2023/06/09 03:26:45;;;;;;;6.68;5.30;;;;;;;;;;5063738;28;20037;-81
2023/06/09 03:29:11;;;;;;;7.55;5.80;;;;;;;;;;5054642;28;20029;-88
2023/06/09 03:31:37;;;;;;;7.90;5.50;;;;;;;;;;5065325;28;20067;-85
2023/06/09 03:34:02;;;;;;;8.48;5.65;;;17.00;99.90;;;;;;5046581;28;20037;-84
2023/06/09 03:36:28;;;;;;;7.40;5.78;;;;;;;;;;5054052;28;20021;-87
2023/06/09 03:38:55;;;;;;;8.65;5.85;;;;;;;;;;5050091;28;20025;-81
2023/06/09 03:41:21;;;;;;;8.02;5.55;;;;;;;;;;5047138;28;20513;-85
2023/06/09 03:43:47;;;;;;;8.65;5.72;;;;;;;;;;5050223;28;20120;-84
2023/06/09 03:46:13;;;;;;;7.53;5.95;;;;;;;;;;5047314;28;20067;-84
2023/06/09 03:48:40;;;;;;;7.72;5.70;;;16.90;99.90;;;;;;5066112;28;20052;-84
2023/06/09 03:51:06;;;;;;;9.13;6.03;;;;;;;;;;5049226;28;20060;-83
2023/06/09 03:53:32;;;;;;;9.32;5.97;;;;;;;;;;5043825;28;20025;-86
2023/06/09 03:56:01;;;;;;;7.45;5.80;;;;;;;;;;5055722;28;20118;-82
2023/06/09 03:58:30;;;;;;;8.80;5.70;;;;;;;;;;5050410;28;20033;-87
2023/06/09 04:00:56;;;;;;;8.23;6.03;;;;;;;;;;5054574;28;20271;-84
2023/06/09 04:03:22;;;;;;;6.90;5.82;;;16.80;99.90;;;;;;5045646;28;20484;-86
2023/06/09 04:05:49;;;;;;;8.68;6.07;;;;;;;;;;5053455;28;20047;-84
2023/06/09 04:08:15;;;;;;;8.02;5.38;;;;;;;;;;5046674;28;20041;-85
2023/06/09 04:10:41;;;;;;;9.93;5.95;;;16.90;99.90;;;;;;5050195;28;20463;-86
2023/06/09 04:13:09;;;;;;;8.60;5.93;;;16.90;99.90;;;;;;5048078;28;20022;-85
2023/06/09 04:15:35;;;;;;;8.40;5.82;;;;;;;;;;5048666;28;20381;-83
2023/06/09 04:18:01;;;;;;;8.70;5.85;;;;;;;;;;5050421;28;20080;-83
2023/06/09 04:20:27;;;;;;;11.27;6.25;;;16.90;99.90;;;;;;5063689;28;20039;-83
2023/06/09 04:22:53;;;;;;;6.55;5.50;;;;;;;;;;5053916;28;20029;-84
2023/06/09 04:25:25;;;;;;;7.30;5.45;;;;;;;;;;5050142;28;20037;-84
2023/06/09 04:27:55;;;;;;;8.40;6.03;;;16.90;99.90;;;;;;5062541;28;20151;-79
2023/06/09 04:30:25;;;;;;;9.57;6.22;;;;;;;;;;5053044;28;20033;-82
2023/06/09 04:32:54;;;;;;;8.85;5.88;;;16.80;99.90;;;;;;5052725;28;20039;-84
2023/06/09 04:35:23;;;;;;;7.28;5.95;;;;;;;;;;5054919;28;20037;-81
2023/06/09 04:37:50;;;;;;;7.75;5.53;;;;;;;;;;5048446;28;20025;-83
2023/06/09 04:40:23;;;;;;;8.68;6.40;;;16.90;99.90;;;;;;5052117;28;20037;-83
2023/06/09 04:42:55;;;;;;;9.50;6.20;;;16.90;99.90;;;;;;5056801;28;20143;-86
2023/06/09 04:45:27;;;;;;;8.05;6.05;;;;;;;;;;5051721;28;20096;-83
2023/06/09 04:47:53;;;;;;;9.45;5.55;;;;;;;;;;5066812;28;20777;-85
2023/06/09 04:50:21;;;;;;;8.70;6.10;;;;;;;;;;5051442;28;20036;-87
2023/06/09 04:52:47;;;;;;;8.43;6.20;;;;;;;;;;5052549;28;20044;-84
2023/06/09 04:55:13;;;;;;;9.68;6.22;;;;;;;;;;5047622;28;20405;-83
2023/06/09 04:57:40;;;;;;;8.57;6.13;;;;;;;;;;5067705;28;20040;-86
2023/06/09 05:00:07;;;;;;;8.00;5.80;;;17.10;99.90;;;;;;5066027;28;20092;-85
2023/06/09 05:02:33;;;;;;;9.23;6.15;;;;;;;;;;5050944;28;20037;-83
2023/06/09 05:04:59;;;;;;;10.02;7.00;;;;;;;;;;5053755;28;20075;-85
2023/06/09 05:07:26;;;;;;;8.98;6.32;;;;;;;;;;5068574;28;20032;-84
2023/06/09 05:09:52;;;;;;;7.90;6.10;;;;;;;;;;5065274;28;20028;-83
2023/06/09 05:12:17;;;;;;;7.85;6.30;;;17.30;99.90;;;;;;5068142;28;20053;-84
2023/06/09 05:14:43;;;;;;;8.95;5.90;;;;;;;;;;5051431;28;20033;-81
2023/06/09 05:17:09;;;;;;;8.52;6.20;;;;;;;;;;5065148;28;20036;-84
2023/06/09 05:19:35;;;;;;;8.25;6.47;;;;;;;;;;5054283;28;20073;-84
2023/06/09 05:22:01;;;;;;;7.22;5.88;;;;;;;;;;5050666;28;20072;-86
2023/06/09 05:24:27;;;;;;;8.60;6.00;;;;;;;;;;5065374;28;20435;-86
2023/06/09 05:26:53;;;;;;;8.95;5.70;;;;;;;;;;5053999;28;20083;-86
2023/06/09 05:29:19;;;;;;;6.97;4.95;;;;;;;;;;5053810;28;20083;-85
2023/06/09 05:31:45;;;;;;;6.65;5.70;;;;;;;;;;5061791;28;20059;-84
2023/06/09 05:34:12;;;;;;;7.80;6.00;;;22.10;97.70;;;;;;5068097;28;20021;-85
2023/06/09 05:36:38;;;;;;;6.80;5.32;;;;;;;;;;5053400;28;20029;-82
2023/06/09 05:39:04;;;;;;;9.35;5.70;;;;;;;;;;5051807;28;20028;-83
2023/06/09 05:41:30;;;;;;;8.30;5.65;;;;;;;;;;5052502;28;20032;-83
2023/06/09 05:43:57;;;;;;;6.47;5.20;;;;;;;;;;5054885;28;20089;-86
2023/06/09 05:46:24;;;;;;;8.43;5.68;;;;;;;;;;5063378;28;20485;-84
2023/06/09 05:48:51;;;;;;;7.10;5.63;;;;;;;;;;5049557;28;20029;-84
2023/06/09 05:51:17;;;;;;;6.03;5.00;;;;;;;;;;5047619;28;20025;-87
2023/06/09 05:53:46;;;;;;;6.88;5.35;;;;;;;;;;5053337;28;20441;-84
2023/06/09 05:56:14;;;;;;;9.23;5.40;;;;;;;;;;5065386;28;20032;-84
2023/06/09 05:58:40;;;;;;;6.95;5.63;;;;;;;;;;5053752;28;20021;-84
2023/06/09 06:01:07;;;;;;;6.72;5.22;;;;;;;;;;5052690;28;20027;-85
2023/06/09 06:03:33;;;;;;;6.85;5.40;;;;;;;;;;5049643;28;20029;-87
2023/06/09 06:05:59;;;;;;;8.48;5.40;;;;;;;;;;5052584;28;20598;-86
2023/06/09 06:08:25;;;;;;;7.30;5.28;;;;;;;;;;5055546;28;20059;-86
2023/06/09 06:10:52;;;;;;;9.98;5.63;;;;;;;;;;5046561;28;20109;-85
2023/06/09 06:13:18;;;;;;;6.93;5.82;;;;;;;;;;5071301;28;20039;-85
2023/06/09 06:15:43;;;;;;;7.30;5.45;;;21.20;98.30;;;;;;5053790;28;20788;-84
2023/06/09 06:18:09;;;;;;;8.45;5.75;;;;;;;;;;5057332;28;20025;-82
2023/06/09 06:20:35;;;;;;;9.38;5.93;;;;;;;;;;5043968;28;20039;-84
2023/06/09 06:23:01;;;;;;;7.47;5.65;;;20.60;99.50;;;;;;5055112;28;20020;-85
2023/06/09 06:25:28;;;;;;;8.35;5.63;;;;;;;;;;5050090;28;20047;-84
2023/06/09 06:27:54;;;;;;;8.20;5.88;;;;;;;;;;5042948;28;20037;-81
2023/06/09 06:30:21;;;;;;;7.90;6.03;;;;;;;;;;5049533;28;20033;-84
2023/06/09 06:32:51;;;;;;;7.57;5.53;;;20.40;99.90;;;;;;5072689;28;20093;-84
2023/06/09 06:35:27;;;;;;;7.78;5.47;;;20.60;99.90;;;;;;5044432;28;20044;-88
2023/06/09 06:37:53;;;;;;;7.88;5.72;;;20.70;99.90;;;;;;5052630;28;20029;-80
2023/06/09 06:40:19;;;;;;;8.32;5.72;;;;;;;;;;5063931;28;20033;-87
2023/06/09 06:42:45;;;;;;;6.80;5.10;;;;;;;;;;5056410;28;20055;-80
2023/06/09 06:45:11;;;;;;;7.28;5.65;;;;;;;;;;5054642;28;20024;-81
2023/06/09 06:47:38;;;;;;;7.35;5.72;;;;;;;;;;5056428;28;20039;-83
2023/06/09 06:50:04;;;;;;;8.60;5.75;;;;;;;;;;5052830;28;20090;-80
2023/06/09 06:52:31;;;;;;;7.20;5.72;;;;;;;;;;5051168;28;20112;-83
2023/06/09 06:54:58;;;;;;;7.57;5.68;;;;;;;;;;5055114;28;20369;-79
2023/06/09 06:57:24;;;;;;;6.40;5.65;;;;;;;;;;5062083;28;20492;-86
2023/06/09 06:59:50;;;;;;;6.88;5.30;;;;;;;;;;5056216;28;20463;-84
2023/06/09 07:02:16;;;;;;;7.60;6.00;;;;;;;;;;5056445;28;20083;-86
2023/06/09 07:04:43;;;;;;;8.73;5.80;;;;;;;;;;5068129;28;20507;-86
2023/06/09 07:07:11;;;;;;;9.70;6.25;;;;;;;;;;5043728;28;20070;-85
2023/06/09 07:09:37;;;;;;;7.57;5.45;;;;;;;;;;5058123;28;20047;-82
2023/06/09 07:12:04;;;;;;;7.10;5.40;;;;;;;;;;5047368;28;20128;-83
2023/06/09 07:14:34;;;;;;;7.90;5.40;;;21.40;99.30;;;;;;5051898;28;20033;-84
2023/06/09 07:17:00;;;;;;;9.13;5.68;;;;;;;;;;5064339;28;20039;-89
2023/06/09 07:19:26;;;;;;;7.65;5.50;;;;;;;;;;5090669;28;20037;-86
2023/06/09 07:21:52;;;;;;;8.05;5.40;;;;;;;;;;5074407;28;20041;-87
2023/06/09 07:24:18;;;;;;;6.22;5.10;;;;;;;;;;5080988;28;20033;-88
2023/06/09 07:26:45;;;;;;;6.55;5.60;;;;;;;;;;5077653;28;20467;-80
2023/06/09 07:29:11;;;;;;;9.45;6.03;;;;;;;;;;5081323;28;20050;-87
2023/06/09 07:31:37;;;;;;;7.57;5.85;;;;;;;;;;5078241;28;20064;-87
2023/06/09 07:34:03;;;;;;;6.85;5.63;;;;;;;;;;5076313;28;20096;-89
2023/06/09 07:36:29;;;;;;;9.48;6.25;;;;;;;;;;5095512;28;20037;-89
2023/06/09 07:38:57;;;;;;;6.28;5.30;;;;;;;;;;5098759;22;20037;-77
2023/06/09 07:41:23;;;;;;;8.40;5.78;;;;;;;;;;5036298;28;20022;-80
2023/06/09 07:43:49;;;;;;;7.68;5.60;;;;;;;;;;5036370;28;20925;-79
2023/06/09 07:46:15;;;;;;;12.75;5.63;;;;;;;;;;5035234;28;20036;-80
2023/06/09 07:48:42;;;;;;;9.82;5.60;;;;;;;;;;5039938;28;20590;-79
2023/06/09 07:51:08;;;;;;;7.88;5.43;;;;;;;;;;5042567;28;20468;-79
2023/06/09 07:53:36;;;;;;;6.05;5.43;;;;;;;;;;5040201;28;20017;-78
2023/06/09 07:56:02;;;;;;;7.85;5.70;;;;;;;;;;5040195;28;20033;-79
2023/06/09 07:58:28;;;;;;;10.13;6.15;;;;;;;;;;5041181;28;20021;-79
2023/06/09 08:00:55;;;;;;;7.30;5.22;;;;;;;;;;5035766;28;20791;-77
2023/06/09 08:03:21;;;;;;;6.97;6.10;;;;;;;;;;5018042;28;20033;-79
2023/06/09 08:05:47;;;;;;;7.25;5.25;;;22.60;97.20;;;;;;5038163;28;20033;-80
2023/06/09 08:08:13;;;;;;;8.38;5.35;;;;;;;;;;5039144;28;20045;-80
2023/06/09 08:10:39;;;;;;;8.52;5.45;;;;;;;;;;5034912;28;20033;-79
2023/06/09 08:13:05;;;;;;;5.95;5.03;;;;;;;;;;5039743;28;20018;-79
2023/06/09 08:15:32;;;;;;;11.93;5.80;;;;;;;;;;5050938;28;20022;-77
2023/06/09 08:17:58;;;;;;;6.85;5.82;;;;;;;;;;5044652;28;20048;-79
2023/06/09 08:20:24;;;;;;;6.32;5.47;;;;;;;;;;5031667;28;20034;-77
2023/06/09 08:22:50;;;;;;;7.22;6.00;;;;;;;;;;5036953;28;20109;-80
2023/06/09 08:25:17;;;;;;;7.05;5.20;;;;;;;;;;5034646;28;20060;-76
2023/06/09 08:27:43;;;;;;;8.88;5.78;;;;;;;;;;5028941;28;20040;-77
2023/06/09 08:30:09;;;;;;;6.78;5.65;;;;;;;;;;5026736;28;20032;-80
2023/06/09 08:32:36;;;;;;;6.13;5.53;;;;;;;;;;5017200;28;20116;-78
2023/06/09 08:35:06;;;;;;;7.80;5.70;;;23.50;96.40;;;;;;5039539;28;20029;-81
2023/06/09 08:37:33;;;;;;;6.43;5.22;;;;;;;;;;5042519;28;20489;-79
2023/06/09 08:40:00;;;;;;;6.53;5.47;;;;;;;;;;5035215;28;20034;-79
2023/06/09 08:42:30;;;;;;;6.53;5.45;;;23.80;95.50;;;;;;5044999;28;20033;-79
2023/06/09 08:45:02;;;;;;;9.15;5.22;;;23.80;99.90;;;;;;5038238;28;20032;-79
2023/06/09 08:47:29;;;;;;;7.15;5.10;;;23.60;95.50;;;;;;5025097;28;20083;-77
2023/06/09 08:49:57;;;;;;;12.07;5.13;;;23.80;95.80;;;;;;5036915;28;20405;-77
2023/06/09 08:52:29;;;;;;;7.82;5.45;;;24.00;99.90;;;;;;5033574;28;20087;-78
2023/06/09 08:54:56;;;;;;;8.15;5.38;;;24.00;95.20;;;;;;5035553;28;20025;-81
2023/06/09 08:57:23;;;;;;;9.23;5.63;;;;;;;;;;5040204;28;20021;-83
2023/06/09 08:59:53;;;;;;;8.02;5.60;;;;;;;;;;5045858;28;20048;-83
2023/06/09 09:02:19;;;;;;;7.78;6.32;;;;;;;;;;5045721;28;20068;-83
2023/06/09 09:04:46;;;;;;;7.97;5.57;;;;;;;;;;5045477;28;20029;-85
2023/06/09 09:07:13;;;;;;;6.60;5.55;;;;;;;;;;5040967;28;20029;-83
2023/06/09 09:09:42;;;;;;;11.52;6.03;;;;;;;;;;5040859;28;20187;-84
2023/06/09 09:12:12;;;;;;;6.97;5.27;;;;;;;;;;5042423;28;20056;-84
2023/06/09 09:14:45;;;;;;;6.45;5.22;;;;;;;;;;5038769;28;20288;-84
2023/06/09 09:17:11;;;;;;;6.93;4.97;;;;;;;;;;5035986;28;20032;-84
2023/06/09 09:19:41;;;;;;;6.43;4.80;;;;;;;;;;5034452;28;20029;-83
2023/06/09 09:22:07;;;;;;;5.68;4.57;;;;;;;;;;5040854;28;20029;-84
2023/06/09 09:24:34;;;;;;;8.23;4.95;;;;;;;;;;5040223;28;20041;-85
2023/06/09 09:27:00;;;;;;;6.13;5.15;;;;;;;;;;5026855;28;20382;-83
2023/06/09 09:29:29;;;;;;;7.15;4.75;;;;;;;;;;5037381;28;20401;-84
2023/06/09 09:31:58;;;;;;;5.90;4.40;;;;;;;;;;5037756;28;20243;-86
2023/06/09 09:34:27;;;;;;;6.28;4.90;;;;;;;;;;5041938;28;20099;-85
2023/06/09 09:36:55;;;;;;;8.68;5.20;;;;;;;;;;5050704;28;20024;-84
2023/06/09 09:39:21;;;;;;;5.60;4.78;;;;;;;;;;5056128;28;20049;-85
2023/06/09 09:42:14;;;;;;;7.07;4.68;;;;;;;;;;5065159;28;20005;-84
2023/06/09 09:44:40;;;;;;;6.88;5.07;;;;;;;;;;5058505;28;20067;-84
2023/06/09 09:47:13;;;;;;;7.00;4.40;;;;;;;;;;5054946;28;20018;-84
2023/06/09 09:49:48;;;;;;;10.68;4.82;;;;;;;;;;5052262;28;20021;-86
2023/06/09 09:52:14;;;;;;;6.38;4.45;;;;;;;;;;5057720;28;20013;-83
2023/06/09 09:54:41;;;;;;;9.50;4.57;;;;;;;;;;5058662;28;20024;-84
2023/06/09 09:57:07;;;;;;;7.53;4.65;;;;;;;;;;5059061;28;20056;-85
2023/06/09 09:59:33;;;;;;;6.50;4.28;;;;;;;;;;5051938;28;20034;-82
2023/06/09 10:02:00;;;;;;;5.85;4.47;;;;;;;;;;5053848;28;20037;-85
2023/06/09 10:04:27;;;;;;;7.70;4.50;;;;;;;;;;5050984;28;20084;-86
2023/06/09 10:06:58;;;;;;;6.40;4.18;;;;;;;;;;5044257;28;20552;-85
2023/06/09 10:09:25;;;;;;;6.72;4.15;;;;;;;;;;5043502;28;20030;-85
2023/06/09 10:11:52;;;;;;;5.70;3.63;;;;;;;;;;5049421;28;20060;-84
2023/06/09 10:14:22;;;;;;;5.35;3.90;;;;;;;;;;5038673;28;20052;-85
2023/06/09 10:16:52;;;;;;;5.82;3.47;;;;;;;;;;5048032;28;20029;-83
2023/06/09 10:19:18;;;;;;;5.03;3.58;;;;;;;;;;5040047;28;20033;-84
2023/06/09 10:21:45;;;;;;;5.18;3.40;;;;;;;;;;5034768;28;20046;-85
2023/06/09 10:24:12;;;;;;;5.78;4.00;;;;;;;;;;5039986;28;20025;-84
2023/06/09 10:26:39;;;;;;;5.43;3.72;;;;;;;;;;5051442;28;20018;-84
2023/06/09 10:29:09;;;;;;;6.03;3.78;;;;;;;;;;5046136;28;20033;-85
2023/06/09 10:31:39;;;;;;;6.10;4.00;;;;;;;;;;5055215;28;20532;-84
2023/06/09 10:34:07;;;;;;;5.45;3.83;;;;;;;;;;5032657;28;20090;-86
2023/06/09 10:36:41;;;;;;;5.43;4.18;;;;;;;;;;5041872;28;20028;-85
2023/06/09 10:39:22;;;;;;;5.65;4.13;;;;;;;;;;5044091;28;20033;-84
2023/06/09 10:42:17;;;;;;;5.05;3.80;;;26.70;84.50;;;;;;5059693;28;20025;-84
2023/06/09 10:45:03;;;;;;;4.82;3.50;;;;;;;;;;5022371;28;20029;-83
2023/06/09 10:47:44;;;;;;;5.40;4.03;;;;;;;;;;5040660;28;20024;-84
2023/06/09 10:50:23;;;;;;;5.97;3.72;;;;;;;;;;5036651;28;20034;-84
2023/06/09 10:52:52;;;;;;;8.10;3.10;;;;;;;;;;5035600;28;20514;-83
2023/06/09 10:55:21;;;;;;;4.93;3.63;;;;;;;;;;5033026;28;20495;-83
2023/06/09 10:57:47;;;;;;;5.78;3.60;;;27.30;79.00;;;;;;5040525;28;20095;-83
2023/06/09 11:00:16;;;;;;;7.32;3.60;;;;;;;;;;5040793;28;20030;-84
2023/06/09 11:02:47;;;;;;;4.90;3.60;;;27.40;77.80;;;;;;5046287;28;20017;-84
2023/06/09 11:05:15;;;;;;;6.63;3.80;;;;;;;;;;5038797;28;20061;-84
2023/06/09 11:07:41;;;;;;;5.70;3.47;;;;;;;;;;5051317;28;20092;-84
2023/06/09 11:10:07;;;;;;;5.95;3.83;;;;;;;;;;5046573;28;20515;-83
2023/06/09 11:12:36;;;;;;;6.03;3.58;;;;;;;;;;5052028;28;20016;-84
2023/06/09 11:15:03;;;;;;;5.18;3.70;;;;;;;;;;5054558;28;20281;-84
2023/06/09 11:17:49;;;;;;;5.43;3.40;;;28.00;75.40;;;;;;5057388;28;20036;-84
2023/06/09 11:20:17;;;;;;;4.75;3.50;;;;;;;;;;5055631;28;20100;-84
2023/06/09 11:23:01;;;;;;;6.15;3.35;;;;;;;;;;5062413;28;20080;-84
2023/06/09 11:25:28;;;;;;;4.85;3.30;;;;;;;;;;5052649;28;20052;-83
2023/06/09 11:27:56;;;;;;;5.15;2.97;;;;;;;;;;5051085;28;20013;-83
2023/06/09 11:30:24;;;;;;;4.28;3.20;;;;;;;;;;5055346;28;20133;-84
2023/06/09 11:32:57;;;;;;;5.70;3.35;;;;;;;;;;5056694;28;20053;-84
2023/06/09 11:35:23;;;;;;;5.38;3.40;;;;;;;;;;5056853;28;20017;-84
2023/06/09 11:37:53;;;;;;;4.80;3.35;;;;;;;;;;5056262;28;20048;-84
2023/06/09 11:40:19;;;;;;;6.03;3.60;;;;;;;;;;5049053;28;20021;-83
2023/06/09 11:42:46;;;;;;;6.10;3.17;;;;;;;;;;5058331;28;20071;-85
2023/06/09 11:45:12;;;;;;;5.25;3.10;;;;;;;;;;5065373;28;20037;-86
2023/06/09 11:47:40;;;;;;;4.47;3.20;;;;;;;;;;5055399;28;20041;-85
2023/06/09 11:50:10;;;;;;;5.57;3.30;;;;;;;;;;5052884;28;20103;-85
2023/06/09 11:52:36;;;;;;;5.82;3.35;;;;;;;;;;5054793;28;20089;-84
2023/06/09 11:55:04;;;;;;;5.05;3.50;;;;;;;;;;5053887;28;20038;-85
2023/06/09 11:57:30;;;;;;;5.30;3.28;;;;;;;;;;5050023;28;20033;-85
2023/06/09 11:59:56;;;;;;;4.60;3.42;;;;;;;;;;5047034;28;20032;-85
2023/06/09 12:02:23;;;;;;;6.47;3.63;;;;;;;;;;5047328;28;20034;-84
2023/06/09 12:04:49;;;;;;;4.30;3.70;;;;;;;;;;5052796;28;20017;-84
2023/06/09 12:07:17;;;;;;;5.70;3.45;;;;;;;;;;5046944;28;20029;-85
2023/06/09 12:09:43;;;;;;;5.00;3.58;;;;;;;;;;5041631;28;20025;-83
2023/06/09 12:12:10;;;;;;;6.07;3.53;;;;;;;;;;5046596;28;20500;-85
2023/06/09 12:14:37;;;;;;;4.35;3.42;;;;;;;;;;5049344;28;20020;-83
2023/06/09 12:17:04;;;;;;;6.65;3.50;;;;;;;;;;5050877;28;20041;-85
2023/06/09 12:19:30;;;;;;;5.80;3.42;;;;;;;;;;5045497;28;20056;-85
2023/06/09 12:21:56;;;;;;;5.18;3.35;;;;;;;;;;5043283;28;20668;-84
2023/06/09 12:24:23;;;;;;;4.80;3.50;;;;;;;;;;5049475;28;20041;-85
2023/06/09 12:26:49;;;;;;;4.82;3.28;;;;;;;;;;5054882;28;20021;-85
2023/06/09 12:29:15;;;;;;;4.72;3.30;;;;;;;;;;5045244;28;20025;-84
2023/06/09 12:31:45;;;;;;;4.32;3.20;;;;;;;;;;5044467;28;20017;-84
2023/06/09 12:34:30;;;;;;;;;;;28.90;67.00;;;;;;5052285;28;20018;-84
2023/06/09 12:36:57;;;;;;;7.00;3.42;;;;;;;;;;5064204;28;19940;-84
2023/06/09 12:39:24;;;;;;;4.85;3.50;;;;;;;;;;5044490;28;20064;-84
2023/06/09 12:41:50;;;;;;;4.75;3.15;;;;;;;;;;5041693;28;20327;-84
2023/06/09 12:44:23;;;;;;;4.07;3.28;;;;;;;;;;5050353;28;20033;-83
2023/06/09 12:46:55;;;;;;;4.50;3.28;;;;;;;;;;5044212;28;20053;-84
2023/06/09 12:49:29;;;;;;;5.88;3.40;;;;;;;;;;5062578;28;20044;-84
2023/06/09 12:51:55;;;;;;;4.43;3.50;;;;;;;;;;5046959;28;20088;-84
2023/06/09 12:54:21;;;;;;;6.07;3.50;;;;;;;;;;5051928;28;20064;-84
2023/06/09 12:56:47;;;;;;;4.80;3.30;;;;;;;;;;5048561;28;20097;-84
2023/06/09 12:59:13;;;;;;;4.55;3.55;;;;;;;;;;5044883;28;20033;-85
2023/06/09 13:01:39;;;;;;;5.95;3.33;;;;;;;;;;5035316;28;20033;-83
2023/06/09 13:04:06;;;;;;;4.90;3.67;;;;;;;;;;5035453;28;20040;-84
2023/06/09 13:06:33;;;;;;;4.78;3.60;;;29.00;66.00;;;;;;5020272;28;20044;-85
2023/06/09 13:09:00;;;;;;;4.13;3.33;;;;;;;;;;5039948;28;20048;-84
2023/06/09 13:11:27;;;;;;;4.63;3.70;;;;;;;;;;5035667;28;20029;-84
2023/06/09 13:13:53;;;;;;;6.88;4.00;;;;;;;;;;5037457;28;20071;-85
2023/06/09 13:16:19;;;;;;;5.88;3.80;;;;;;;;;;5040645;28;20033;-85
2023/06/09 13:18:45;;;;;;;3.85;3.20;;;;;;;;;;5039172;28;20442;-84
2023/06/09 13:21:11;;;;;;;4.10;3.40;;;;;;;;;;5033869;28;20040;-84
2023/06/09 13:23:37;;;;;;;4.63;3.40;;;;;;;;;;5039445;28;20081;-82
2023/06/09 13:26:03;;;;;;;7.07;3.30;;;;;;;;;;5042303;28;20025;-85
2023/06/09 13:28:29;;;;;;;7.68;3.58;;;;;;;;;;5039874;28;20043;-85
2023/06/09 13:30:57;;;;;;;3.70;3.08;;;;;;;;;;5034492;28;20045;-85
2023/06/09 13:33:22;;;;;;;4.97;3.28;;;;;;;;;;5034063;28;20053;-84
2023/06/09 13:35:49;;;;;;;4.30;3.33;;;;;;;;;;5037744;28;20017;-84
2023/06/09 13:38:15;;;;;;;4.75;3.28;;;;;;;;;;5035920;28;20040;-84
2023/06/09 13:40:44;;;;;;;5.40;3.42;;;;;;;;;;5033370;28;20025;-84
2023/06/09 13:43:13;;;;;;;4.43;3.42;;;29.40;65.10;;;;;;5034768;28;20025;-84
2023/06/09 13:45:39;;;;;;;4.75;3.33;;;;;;;;;;5041198;28;20032;-84
2023/06/09 13:48:06;;;;;;;5.63;3.72;;;;;;;;;;5036883;28;20026;-84
2023/06/09 13:50:32;;;;;;;4.78;3.70;;;;;;;;;;5051538;28;20033;-85
2023/06/09 13:53:02;;;;;;;3.78;3.28;;;29.60;63.50;;;;;;5039997;28;20080;-85
2023/06/09 13:55:31;;;;;;;4.93;3.20;;;;;;;;;;5038423;28;20033;-85
2023/06/09 13:57:57;;;;;;;4.28;3.30;;;;;;;;;;5040089;28;20025;-84
2023/06/09 14:00:26;;;;;;;4.65;3.40;;;;;;;;;;5037620;28;20079;-85
2023/06/09 14:02:52;;;;;;;5.00;3.45;;;;;;;;;;5042650;28;20036;-85
2023/06/09 14:05:19;;;;;;;4.00;3.47;;;;;;;;;;5065346;28;20045;-85
2023/06/09 14:07:46;;;;;;;5.22;3.30;;;;;;;;;;5058362;28;20009;-85
2023/06/09 14:10:13;;;;;;;7.93;3.35;;;;;;;;;;5055801;28;20033;-83
2023/06/09 14:12:40;;;;;;;5.47;3.60;;;;;;;;;;5051892;28;20030;-84
2023/06/09 14:15:12;;;;;;;4.00;3.30;;;;;;;;;;5050693;28;20045;-84
2023/06/09 14:17:38;;;;;;;4.95;3.42;;;;;;;;;;5049666;28;20030;-84
2023/06/09 14:20:05;;;;;;;8.52;3.20;;;;;;;;;;5051806;28;20017;-84
2023/06/09 14:22:31;;;;;;;4.55;3.50;;;;;;;;;;5064571;28;20018;-84
2023/06/09 14:24:57;;;;;;;7.10;3.85;;;;;;;;;;5056917;28;20029;-84
2023/06/09 14:27:23;;;;;;;4.72;3.20;;;;;;;;;;5054482;28;20610;-83
2023/06/09 14:29:49;;;;;;;8.35;3.22;;;;;;;;;;5040055;28;20064;-83
2023/06/09 14:32:16;;;;;;;7.05;3.50;;;;;;;;;;5045644;28;20037;-85
2023/06/09 14:34:42;;;;;;;4.15;3.33;;;;;;;;;;5043770;28;20074;-85
2023/06/09 14:37:08;;;;;;;6.00;3.47;;;;;;;;;;5044208;28;20026;-84
2023/06/09 14:39:34;;;;;;;5.43;3.85;;;;;;;;;;5044831;28;20124;-85
2023/06/09 14:42:00;;;;;;;6.22;3.30;;;;;;;;;;5044144;28;20581;-84
2023/06/09 14:44:26;;;;;;;6.07;3.53;;;;;;;;;;5044402;28;20030;-85
2023/06/09 14:46:55;;;;;;;5.35;3.22;;;;;;;;;;5046827;28;20037;-84